Flight Track Log - Related Links

Times and Time Zones

All times are in EST time to prevent confusion due to time zone crossing. See the XOJ552 flight status page for this flight to view local times or setup timezone preferences in your user account.

Time Position Orientation Groundspeed Altitude Reporting Facility
EST Latitude Longitude Course Direction KTS MPH feet Rate Location/Type
Fri 01:19:09 PM 40.0667 -75.0333 270° West 163 188 1,000  Level Philadelphia TRACON
Fri 01:19:45 PM 40.0667 -75.0667 270° West 198 228 2,400 2,313 Climbing Philadelphia TRACON
Fri 01:20:45 PM 40.0500 -75.1500 255° West 241 277 4,700 2,350 Climbing Philadelphia TRACON
Fri 01:21:45 PM 40.0333 -75.2333 255° West 229 264 7,100 1,828 Climbing Philadelphia TRACON
Fri 01:23:39 PM 39.9831 -75.3981 248° West 275 316 10,000 1,000 Climbing New York Center
Fri 01:24:39 PM 39.9581 -75.5047 253° West 298 343 10,000 400 Level New York Center
Fri 01:25:39 PM 39.9306 -75.6139 252° West 315 362 10,800 1,350 Climbing New York Center
Fri 01:26:39 PM 39.9156 -75.7267 260° West 321 369 12,700 2,450 Climbing New York Center
Fri 01:27:39 PM 39.9133 -75.8319 268° West 307 353 15,700 2,850 Climbing New York Center
Fri 01:28:39 PM 39.9128 -75.9375 270° West 299 344 18,400 2,700 Climbing New York Center
Fri 01:29:39 PM 39.9119 -76.0483 269° West 299 344 21,100 2,850 Climbing New York Center
Fri 01:30:39 PM 39.9114 -76.1567 270° West 304 350 24,100 2,900 Climbing New York Center
Fri 01:31:39 PM 39.9108 -76.2594 270° West 304 350 26,900 1,450 Climbing New York Center
Fri 01:32:39 PM 39.9156 -76.3761 273° West 309 356 27,000 450 Climbing New York Center
Fri 01:33:39 PM 39.9222 -76.4986 274° West 331 381 27,800 1,400 Climbing New York Center
Fri 01:34:39 PM 39.9250 -76.6153 272° West 331 381 29,800 2,050 Climbing New York Center
Fri 01:35:39 PM 39.9281 -76.7211 272° West 316 364 31,900 1,650 Climbing New York Center
Fri 01:36:39 PM 39.9331 -76.8244 274° West 303 349 33,100 1,200 Climbing New York Center
Fri 01:37:39 PM 39.9381 -76.9331 273° West 303 349 34,300 1,200 Climbing New York Center
Fri 01:38:39 PM 39.9403 -77.0444 272° West 303 349 35,500 1,100 Climbing New York Center
Fri 01:39:39 PM 39.9447 -77.1558 273° West 309 356 36,500 1,000 Climbing New York Center
Fri 01:40:39 PM 39.9492 -77.2700 273° West 314 361 37,500 1,018 Climbing New York Center
Fri 01:42:24 PM 39.9561 -77.4725 273° West 317 365 39,300 1,006 Climbing Cleveland Center
Fri 01:43:26 PM 39.9603 -77.5831 273° West 309 356 40,300 871 Climbing Cleveland Center
Fri 01:44:28 PM 39.9625 -77.6914 272° West 301 346 41,100 732 Climbing Cleveland Center
Fri 01:45:29 PM 39.9656 -77.7983 272° West 296 341 41,800 683 Climbing Cleveland Center
Fri 01:46:31 PM 39.9681 -77.9025 272° West 291 335 42,500 581 Climbing Cleveland Center
Fri 01:47:33 PM 39.9714 -78.0050 272° West 285 328 43,000 242 Climbing Cleveland Center
Fri 01:48:35 PM 39.9747 -78.1081 272° West 285 328 43,000  Level Cleveland Center
Fri 01:49:37 PM 39.9781 -78.2361 272° West 293 337 43,000  Level Cleveland Center
Fri 01:50:39 PM 39.9814 -78.3392 272° West 296 341 43,000  Level Cleveland Center
Fri 01:51:40 PM 39.9847 -78.4503 272° West 302 348 43,000  Level Cleveland Center
Fri 01:52:42 PM 39.9869 -78.5672 271° West 314 361 43,000  Level Cleveland Center
Fri 01:53:44 PM 39.9894 -78.6825 272° West 319 367 43,000  Level Cleveland Center
Fri 01:54:46 PM 39.9925 -78.8167 272° West 313 360 43,000  Level Cleveland Center
Fri 01:55:48 PM 39.9950 -78.9283 272° West 310 357 43,000  Level Cleveland Center
Fri 01:56:50 PM 39.9983 -79.0492 272° West 319 367 43,000  Level Cleveland Center
Fri 01:57:52 PM 39.9997 -79.1625 271° West 316 364 43,000  Level Cleveland Center
Fri 01:58:54 PM 40.0025 -79.2758 272° West 313 360 43,000  Level Cleveland Center
Fri 01:59:56 PM 40.0036 -79.3911 271° West 315 362 43,000  Level Cleveland Center
Fri 02:00:58 PM 40.0058 -79.5044 272° West 315 362 43,000  Level Cleveland Center
Fri 02:01:59 PM 40.0069 -79.6200 271° West 317 365 43,000  Level Cleveland Center
Fri 02:03:01 PM 40.0086 -79.7594 271° West 319 367 43,000  Level Cleveland Center
Fri 02:04:03 PM 40.0097 -79.8750 271° West 319 367 43,000  Level Cleveland Center
Fri 02:05:05 PM 40.0117 -79.9928 271° West 322 371 43,000  Level Cleveland Center
Fri 02:06:07 PM 40.0119 -80.1103 270° West 323 372 43,000  Level Cleveland Center
Fri 02:07:09 PM 40.0139 -80.2264 271° West 320 368 43,000  Level Cleveland Center
Fri 02:08:11 PM 40.0144 -80.3433 270° West 321 369 43,000  Level Cleveland Center
Fri 02:09:13 PM 40.0150 -80.4608 270° West 323 372 43,000  Level Cleveland Center
Fri 02:10:15 PM 40.0164 -80.6003 271° West 321 369 43,000  Level Cleveland Center
Fri 02:11:17 PM 40.0169 -80.7167 270° West 320 368 43,000  Level Cleveland Center
Fri 02:12:19 PM 40.0172 -80.8328 270° West 321 369 43,000  Level Cleveland Center
Fri 02:13:00 PM 40.0150 -80.8975 267° West 321 369 43,000  Level Indianapolis Center
Fri 02:14:01 PM 40.0136 -81.0347 269° West 321 369 43,000  Level Indianapolis Center
Fri 02:15:05 PM 40.0117 -81.1519 269° West 321 369 43,000  Level Indianapolis Center
Fri 02:16:05 PM 40.0103 -81.2689 269° West 320 368 43,000  Level Indianapolis Center
Fri 02:17:06 PM 40.0078 -81.3844 268° West 318 366 43,000  Level Indianapolis Center
Fri 02:18:10 PM 40.0047 -81.5033 268° West 322 371 43,000  Level Indianapolis Center
Fri 02:19:10 PM 40.0031 -81.6208 269° West 321 369 43,000  Level Indianapolis Center
Fri 02:20:14 PM 40.0000 -81.7378 268° West 320 368 43,000  Level Indianapolis Center
Fri 02:21:14 PM 39.9975 -81.8644 269° West 320 368 43,000  Level Indianapolis Center
Fri 02:22:17 PM 39.9950 -81.9808 268° West 321 369 43,000  Level Indianapolis Center
Fri 02:23:18 PM 39.9922 -82.0978 268° West 322 371 43,000  Level Indianapolis Center
Fri 02:24:22 PM 39.9889 -82.2164 268° West 327 376 43,000  Level Indianapolis Center
Fri 02:25:22 PM 39.9864 -82.3339 268° West 327 376 43,000  Level Indianapolis Center
Fri 02:26:26 PM 39.9825 -82.4769 268° West 328 377 43,000  Level Indianapolis Center
Fri 02:27:27 PM 39.9789 -82.5942 268° West 327 376 43,000  Level Indianapolis Center
Fri 02:28:28 PM 39.9758 -82.7131 268° West 327 376 43,000  Level Indianapolis Center
Fri 02:29:30 PM 39.9719 -82.8317 268° West 329 379 43,000  Level Indianapolis Center
Fri 02:30:33 PM 39.9686 -82.9517 268° West 331 381 43,000  Level Indianapolis Center
Fri 02:31:33 PM 39.9644 -83.0719 267° West 333 383 43,000  Level Indianapolis Center
Fri 02:32:36 PM 39.9625 -83.2164 269° West 334 384 43,000  Level Indianapolis Center
Fri 02:33:40 PM 39.9578 -83.3375 267° West 337 388 43,000  Level Indianapolis Center
Fri 02:34:40 PM 39.9536 -83.4656 268° West 338 389 43,000  Level Indianapolis Center
Fri 02:35:43 PM 39.9494 -83.5781 267° West 340 391 43,000  Level Indianapolis Center
Fri 02:36:44 PM 39.9444 -83.7239 267° West 341 392 43,000  Level Indianapolis Center
Fri 02:37:47 PM 39.9397 -83.8458 267° West 340 391 43,000  Level Indianapolis Center
Fri 02:38:48 PM 39.9350 -83.9678 267° West 340 391 43,000  Level Indianapolis Center
Fri 02:39:51 PM 39.9292 -84.0922 267° West 344 396 43,000  Level Indianapolis Center
Fri 02:40:52 PM 39.9247 -84.2164 267° West 344 396 43,000  Level Indianapolis Center
Fri 02:41:56 PM 39.9189 -84.3661 267° West 346 398 43,000  Level Indianapolis Center
Fri 02:42:57 PM 39.9139 -84.4906 267° West 346 398 43,000  Level Indianapolis Center
Fri 02:44:00 PM 39.9081 -84.6147 267° West 345 397 43,000  Level Indianapolis Center
Fri 02:45:01 PM 39.9025 -84.7403 267° West 347 399 43,000  Level Indianapolis Center
Fri 02:46:04 PM 39.8961 -84.8656 266° West 348 400 43,000  Level Indianapolis Center
Fri 02:47:05 PM 39.8897 -84.9956 266° West 348 400 43,000  Level Indianapolis Center
Fri 02:48:09 PM 39.8839 -85.1206 267° West 348 400 43,000  Level Indianapolis Center
Fri 02:49:09 PM 39.8764 -85.2711 266° West 349 402 43,000  Level Indianapolis Center
Fri 02:50:13 PM 39.8700 -85.3969 266° West 350 403 43,000  Level Indianapolis Center
Fri 02:51:13 PM 39.8625 -85.5233 266° West 352 405 43,000  Level Indianapolis Center
Fri 02:52:14 PM 39.8567 -85.6492 267° West 351 404 43,000  Level Indianapolis Center
Fri 02:53:18 PM 39.8494 -85.7753 266° West 352 405 43,000  Level Indianapolis Center
Fri 02:54:21 PM 39.8406 -85.9253 266° West 350 403 43,000  Level Indianapolis Center
Fri 02:55:22 PM 39.8336 -86.0511 266° West 351 404 43,000  Level Indianapolis Center
Fri 02:56:25 PM 39.8261 -86.1753 266° West 351 404 43,000 242 Level Indianapolis Center
Fri 02:57:26 PM 39.8197 -86.2986 266° West 349 402 43,500 541 Climbing Indianapolis Center
Fri 02:58:27 PM 39.8167 -86.4394 268° West 344 396 44,100 532 Climbing Indianapolis Center
Fri 02:59:30 PM 39.8192 -86.5572 272° West 330 380 44,600 429 Climbing Indianapolis Center
Fri 03:00:33 PM 39.8211 -86.6747 271° West 329 379 45,000 194 Climbing Indianapolis Center
Fri 03:01:34 PM 39.8233 -86.7914 271° West 327 376 45,000  Level Indianapolis Center
Fri 03:02:38 PM 39.8256 -86.9100 271° West 328 377 45,000  Level Indianapolis Center
Fri 03:03:38 PM 39.8281 -87.0542 271° West 332 382 45,000  Level Indianapolis Center
Fri 03:04:42 PM 39.8303 -87.1761 271° West 337 388 45,000  Level Indianapolis Center
Fri 03:05:42 PM 39.8308 -87.3000 270° West 342 394 45,000  Level Indianapolis Center
Fri 03:06:46 PM 39.8333 -87.4256 272° West 346 398 45,000  Level Indianapolis Center
Fri 03:07:46 PM 39.8347 -87.5506 271° West 347 399 45,000  Level Indianapolis Center
Fri 03:08:48 PM 39.8356 -87.7017 270° West 349 402 45,000  Level Indianapolis Center
Fri 03:09:51 PM 39.8378 -87.8289 271° West 352 405 45,000  Level Indianapolis Center
Fri 03:10:52 PM 39.8397 -87.9550 271° West 353 406 45,000  Level Indianapolis Center
Fri 03:11:53 PM 39.8397 -88.0822 270° West 353 406 45,000  Level Indianapolis Center
Fri 03:12:46 PM 39.8392 -88.2094 270° West 354 407 45,000  Level Kansas City Center
Fri 03:13:48 PM 39.8400 -88.3383 271° West 354 407 45,000  Level Kansas City Center
Fri 03:14:50 PM 39.8406 -88.4661 270° West 353 406 45,000  Level Kansas City Center
Fri 03:15:52 PM 39.8417 -88.5944 271° West 354 407 45,000  Level Kansas City Center
Fri 03:16:54 PM 39.8422 -88.7239 270° West 357 411 45,000  Level Kansas City Center
Fri 03:17:55 PM 39.8425 -88.8517 270° West 354 407 45,000  Level Kansas City Center
Fri 03:18:57 PM 39.8419 -88.9819 270° West 357 411 45,000  Level Kansas City Center
Fri 03:19:59 PM 39.8422 -89.1114 270° West 357 411 45,000  Level Kansas City Center
Fri 03:21:01 PM 39.8422 -89.2664 270° West 356 410 45,000  Level Kansas City Center
Fri 03:22:03 PM 39.8417 -89.3958 270° West 357 411 45,000  Level Kansas City Center
Fri 03:23:05 PM 39.8408 -89.5244 270° West 356 410 45,000  Level Kansas City Center
Fri 03:24:07 PM 39.8397 -89.6547 269° West 357 411 45,000  Level Kansas City Center
Fri 03:25:08 PM 39.8300 -89.7839 264° West 358 412 45,000  Level Kansas City Center
Fri 03:26:10 PM 39.8178 -89.9117 263° West 357 411 45,000  Level Kansas City Center
Fri 03:27:12 PM 39.8072 -90.0408 264° West 358 412 45,000  Level Kansas City Center
Fri 03:28:14 PM 39.7947 -90.1714 263° West 360 414 45,000  Level Kansas City Center
Fri 03:29:16 PM 39.7803 -90.3275 263° West 362 417 45,000  Level Kansas City Center
Fri 03:30:18 PM 39.7683 -90.4606 263° West 366 421 45,000  Level Kansas City Center
Fri 03:31:19 PM 39.7567 -90.5925 263° West 367 422 45,000  Level Kansas City Center
Fri 03:32:21 PM 39.7431 -90.7342 263° West 369 425 45,000  Level Kansas City Center
Fri 03:33:23 PM 39.7292 -90.8661 262° West 371 427 45,000  Level Kansas City Center
Fri 03:34:25 PM 39.7164 -90.9986 263° West 371 427 45,000  Level Kansas City Center
Fri 03:35:27 PM 39.7042 -91.1289 263° West 368 423 45,000  Level Kansas City Center
Fri 03:36:29 PM 39.6897 -91.2639 262° West 374 430 45,000  Level Kansas City Center
Fri 03:37:31 PM 39.6758 -91.4081 263° West 375 432 45,000  Level Kansas City Center
Fri 03:38:32 PM 39.6614 -91.5425 262° West 376 433 45,000  Level Kansas City Center
Fri 03:39:34 PM 39.6469 -91.6756 262° West 375 432 45,000  Level Kansas City Center
Fri 03:40:36 PM 39.6300 -91.8358 262° West 374 430 45,000  Level Kansas City Center
Fri 03:41:38 PM 39.6158 -91.9708 262° West 377 434 45,000  Level Kansas City Center
Fri 03:42:40 PM 39.6019 -92.1042 262° West 376 433 45,000  Level Kansas City Center
Fri 03:43:42 PM 39.5864 -92.2381 261° West 375 432 45,000  Level Kansas City Center
Fri 03:44:43 PM 39.5719 -92.3739 262° West 377 434 45,000  Level Kansas City Center
Fri 03:45:45 PM 39.5578 -92.5058 262° West 375 432 45,000  Level Kansas City Center
Fri 03:46:47 PM 39.5436 -92.6392 262° West 375 432 45,000  Level Kansas City Center
Fri 03:47:49 PM 39.5244 -92.8000 261° West 375 432 45,000  Level Kansas City Center
Fri 03:48:51 PM 39.5086 -92.9325 261° West 375 432 45,000  Level Kansas City Center
Fri 03:49:53 PM 39.4936 -93.0661 262° West 375 432 45,000  Level Kansas City Center
Fri 03:50:55 PM 39.4772 -93.1978 261° West 374 430 45,000  Level Kansas City Center
Fri 03:51:57 PM 39.4594 -93.3306 260° West 375 432 45,000  Level Kansas City Center
Fri 03:52:59 PM 39.4444 -93.4656 262° West 378 435 45,000  Level Kansas City Center
Fri 03:54:01 PM 39.4261 -93.6278 262° West 378 435 45,000  Level Kansas City Center
Fri 03:55:03 PM 39.4097 -93.7550 261° West 376 433 45,000  Level Kansas City Center
Fri 03:56:05 PM 39.3917 -93.9058 261° West 380 437 45,000  Level Kansas City Center
Fri 03:57:07 PM 39.3758 -94.0350 261° West 380 437 45,000  Level Kansas City Center
Fri 03:58:09 PM 39.3594 -94.1628 261° West 377 434 45,000  Level Kansas City Center
Fri 03:59:10 PM 39.3406 -94.3153 261° West 383 441 45,000  Level Kansas City Center
Fri 04:00:12 PM 39.3239 -94.4444 261° West 380 437 45,000  Level Kansas City Center
Fri 04:01:14 PM 39.3044 -94.5956 261° West 383 441 45,000  Level Kansas City Center
Fri 04:02:16 PM 39.2867 -94.7228 260° West 379 436 45,000  Level Kansas City Center
Fri 04:03:18 PM 39.2886 -94.8764 271° West 382 440 45,000  Level Kansas City Center
Fri 04:04:20 PM 39.2897 -95.0072 271° West 382 440 45,000  Level Kansas City Center
Fri 04:05:22 PM 39.2919 -95.1569 271° West 382 440 45,000  Level Kansas City Center
Fri 04:06:24 PM 39.2944 -95.3000 271° West 381 438 45,000  Level Kansas City Center
Fri 04:07:26 PM 39.2975 -95.4400 272° West 374 430 45,000  Level Kansas City Center
Fri 04:08:28 PM 39.2983 -95.5644 271° West 381 438 45,000  Level Kansas City Center
Fri 04:09:30 PM 39.3000 -95.7172 271° West 380 437 45,000  Level Kansas City Center
Fri 04:10:32 PM 39.3008 -95.8483 271° West 382 440 45,000  Level Kansas City Center
Fri 04:11:34 PM 39.3019 -96.0011 271° West 380 437 45,000  Level Kansas City Center
Fri 04:12:35 PM 39.3031 -96.1328 271° West 383 441 45,000  Level Kansas City Center
Fri 04:13:37 PM 39.3033 -96.2789 270° West 383 441 45,000  Level Kansas City Center
Fri 04:14:39 PM 39.3044 -96.4181 271° West 387 445 45,000  Level Kansas City Center
Fri 04:15:41 PM 39.3056 -96.5733 271° West 386 444 45,000  Level Kansas City Center
Fri 04:16:43 PM 39.3061 -96.7058 270° West 386 444 45,000  Level Kansas City Center
Fri 04:17:45 PM 39.3061 -96.8608 270° West 385 443 45,000  Level Kansas City Center
Fri 04:18:47 PM 39.3064 -96.9936 270° West 386 444 45,000  Level Kansas City Center
Fri 04:19:50 PM 39.3050 -97.1264 269° West 386 444 45,000  Level Kansas City Center
Fri 04:20:51 PM 39.3053 -97.2811 270° West 386 444 45,000  Level Kansas City Center
Fri 04:21:53 PM 39.3047 -97.4144 270° West 388 447 45,000  Level Kansas City Center
Fri 04:22:55 PM 39.3031 -97.5761 269° West 393 452 45,000  Level Kansas City Center
Fri 04:23:58 PM 39.3017 -97.7158 269° West 390 449 45,000  Level Kansas City Center
Fri 04:25:00 PM 39.3003 -97.8561 269° West 389 448 45,000  Level Kansas City Center
Fri 04:26:02 PM 39.3025 -97.9914 271° West 381 438 45,000  Level Kansas City Center
Fri 04:27:04 PM 39.3003 -98.1458 269° West 384 442 45,000  Level Kansas City Center
Fri 04:28:06 PM 39.2953 -98.2711 267° West 390 449 45,000  Level Kansas City Center
Fri 04:29:08 PM 39.2944 -98.4381 270° West 387 445 45,000  Level Kansas City Center
Fri 04:30:10 PM 39.2919 -98.5678 269° West 386 444 45,000  Level Kansas City Center
Fri 04:31:12 PM 39.2931 -98.7203 271° West 382 440 45,000  Level Kansas City Center
Fri 04:32:14 PM 39.2911 -98.8531 269° West 385 443 45,000  Level Kansas City Center
Fri 04:33:16 PM 39.2889 -98.9878 269° West 391 450 45,000  Level Kansas City Center
Fri 04:34:18 PM 39.2903 -99.1244 271° West 386 444 45,000  Level Kansas City Center
Fri 04:35:20 PM 39.2914 -99.2897 271° West 386 444 45,000  Level Kansas City Center
Fri 04:36:22 PM 39.2931 -99.4283 271° West 387 445 45,000  Level Kansas City Center
Fri 04:37:24 PM 39.2944 -99.5667 271° West 386 444 45,000  Level Kansas City Center
Fri 04:38:26 PM 39.2947 -99.7206 270° West 384 442 45,000  Level Kansas City Center
Fri 04:39:28 PM 39.2953 -99.8547 270° West 386 444 45,000  Level Kansas City Center
Fri 04:40:30 PM 39.2964 -100.0133 271° West 391 450 45,000  Level Kansas City Center
Fri 04:41:47 PM 39.2975 -100.1811 271° West 398 458 45,000  Level Denver Center
Fri 04:42:49 PM 39.2975 -100.3406 270° West 397 457 45,000  Level Denver Center
Fri 04:43:51 PM 39.2975 -100.4756 270° West 395 455 45,000  Level Denver Center
Fri 04:44:53 PM 39.2975 -100.6381 270° West 402 463 45,000  Level Denver Center
Fri 04:45:55 PM 39.2975 -100.7769 270° West 404 465 45,000  Level Denver Center
Fri 04:46:57 PM 39.2967 -100.9369 270° West 402 463 45,000  Level Denver Center
Fri 04:47:59 PM 39.2953 -101.0781 269° West 407 468 45,000  Level Denver Center
Fri 04:49:01 PM 39.2956 -101.2203 270° West 411 473 45,000  Level Denver Center
Fri 04:50:03 PM 39.2942 -101.3875 269° West 417 480 45,000  Level Denver Center
Fri 04:51:05 PM 39.2925 -101.5286 269° West 412 474 45,000  Level Denver Center
Fri 04:52:07 PM 39.2911 -101.6936 269° West 412 474 45,000  Level Denver Center
Fri 04:53:09 PM 39.2889 -101.8422 269° West 410 472 45,000  Level Denver Center
Fri 04:54:11 PM 39.2864 -101.9836 269° West 412 474 45,000  Level Denver Center
Fri 04:55:13 PM 39.2850 -102.1489 269° West 412 474 45,000  Level Denver Center
Fri 04:56:15 PM 39.2831 -102.2892 269° West 411 473 45,000  Level Denver Center
Fri 04:57:29 PM 39.2797 -102.4558 269° West 415 478 45,000  Level Denver Center
Fri 04:58:32 PM 39.2758 -102.6433 269° West 411 473 45,000  Level Denver Center
Fri 04:59:34 PM 39.2747 -102.7681 269° West 405 466 45,000  Level Denver Center
Fri 05:00:36 PM 39.2719 -102.9419 269° West 403 464 45,000  Level Denver Center
Fri 05:01:38 PM 39.2683 -103.0856 268° West 402 463 45,000  Level Denver Center
Fri 05:02:41 PM 39.2644 -103.2261 268° West 395 455 45,000  Level Denver Center
Fri 05:03:42 PM 39.2611 -103.3717 268° West 404 465 45,000  Level Denver Center
Fri 05:04:44 PM 39.2575 -103.5156 268° West 402 463 45,000  Level Denver Center
Fri 05:05:46 PM 39.2542 -103.6592 268° West 402 463 45,000  Level Denver Center
Fri 05:06:48 PM 39.2481 -103.8333 267° West 405 466 45,000  Level Denver Center
Fri 05:07:50 PM 39.2444 -103.9772 268° West 403 464 45,000  Level Denver Center
Fri 05:09:05 PM 39.2392 -104.1508 268° West 404 465 45,000  Level Denver Center
Fri 05:10:07 PM 39.2347 -104.2947 268° West 403 464 45,000  Level Denver Center
Fri 05:11:09 PM 39.2303 -104.4389 268° West 402 463 45,000  Level Denver Center
Fri 05:12:11 PM 39.2244 -104.5822 267° West 399 459 45,000  Level Denver Center
Fri 05:13:13 PM 39.2200 -104.7242 268° West 394 453 45,000  Level Denver Center
Fri 05:14:15 PM 39.2131 -104.8944 267° West 394 453 45,000  Level Denver Center
Fri 05:15:17 PM 39.2081 -105.0333 267° West 388 447 45,000 48 Level Denver Center
Fri 05:16:19 PM 39.2025 -105.1756 267° West 393 452 45,100  Climbing Denver Center
Fri 05:17:21 PM 39.1967 -105.3147 267° West 390 449 45,000 -48 Descending Denver Center
Fri 05:18:23 PM 39.1911 -105.4525 267° West 386 444 45,000  Level Denver Center
Fri 05:19:25 PM 39.1847 -105.5903 267° West 385 443 45,000  Level Denver Center
Fri 05:20:27 PM 39.1794 -105.7283 267° West 386 444 45,000  Level Denver Center
Fri 05:21:29 PM 39.1706 -105.8994 266° West 398 458 45,000  Level Denver Center
Fri 05:22:32 PM 39.1650 -106.0406 267° West 396 456 45,000  Level Denver Center
Fri 05:23:34 PM 39.1564 -106.1900 266° West 395 455 45,000  Level Denver Center
Fri 05:24:36 PM 39.1503 -106.3294 267° West 404 465 45,000  Level Denver Center
Fri 05:25:38 PM 39.1422 -106.4900 266° West 404 465 45,000  Level Denver Center
Fri 05:26:40 PM 39.1331 -106.6283 265° West 405 466 45,000 48 Level Denver Center
Fri 05:27:42 PM 39.1264 -106.7678 267° West 407 468 45,100  Climbing Denver Center
Fri 05:28:44 PM 39.1172 -106.9300 266° West 407 468 45,000 -48 Descending Denver Center
Fri 05:29:46 PM 39.1092 -107.0664 266° West 402 463 45,000 48 Level Denver Center
Fri 05:30:48 PM 39.0989 -107.2261 265° West 401 461 45,100  Climbing Denver Center
Fri 05:31:50 PM 39.0914 -107.3617 266° West 398 458 45,000 -48 Descending Denver Center
Fri 05:32:52 PM 39.0825 -107.5219 266° West 401 461 45,000 48 Level Denver Center
Fri 05:33:54 PM 39.0744 -107.6583 266° West 400 460 45,100  Climbing Denver Center
Fri 05:34:56 PM 39.0642 -107.8147 265° West 395 455 45,000 -48 Descending Denver Center
Fri 05:35:58 PM 39.0561 -107.9489 266° West 394 453 45,000  Level Denver Center
Fri 05:37:00 PM 39.0464 -108.1050 265° West 393 452 45,000  Level Denver Center
Fri 05:38:02 PM 39.0383 -108.2414 266° West 396 456 45,000  Level Denver Center
Fri 05:39:04 PM 39.0283 -108.3767 265° West 397 457 45,000  Level Denver Center
Fri 05:40:06 PM 39.0186 -108.5314 265° West 390 449 45,000  Level Denver Center
Fri 05:41:08 PM 39.0086 -108.6644 265° West 388 447 45,000  Level Denver Center
Fri 05:42:10 PM 38.9978 -108.8208 265° West 390 449 45,000  Level Denver Center
Fri 05:43:12 PM 38.9886 -108.9547 265° West 390 449 45,000  Level Denver Center
Fri 05:44:14 PM 38.9758 -109.1108 264° West 390 449 45,000  Level Denver Center
Fri 05:45:16 PM 38.9669 -109.2442 265° West 389 448 45,000  Level Denver Center
Fri 05:46:18 PM 38.9544 -109.4031 264° West 399 459 45,000  Level Denver Center
Fri 05:47:20 PM 38.9433 -109.5369 264° West 394 453 45,000  Level Denver Center
Fri 05:48:22 PM 38.9347 -109.6739 265° West 400 460 45,000  Level Denver Center
Fri 05:49:25 PM 38.9222 -109.8311 264° West 397 457 45,000  Level Denver Center
Fri 05:50:27 PM 38.9150 -109.9664 266° West 396 456 45,000  Level Denver Center
Fri 05:51:29 PM 38.9061 -110.1250 266° West 398 458 45,000  Level Denver Center
Fri 05:52:27 PM 38.8975 -110.2583 265° West 395 455 45,000  Level Salt Lake Center
Fri 05:53:28 PM 38.8906 -110.3944 266° West 398 458 45,000  Level Salt Lake Center
Fri 05:54:30 PM 38.8825 -110.5539 266° West 401 461 45,000  Level Salt Lake Center
Fri 05:55:32 PM 38.8736 -110.6917 265° West 404 465 45,000  Level Salt Lake Center
Fri 05:56:34 PM 38.8644 -110.8539 266° West 407 468 45,000  Level Salt Lake Center
Fri 05:57:35 PM 38.8564 -110.9883 266° West 405 466 45,000  Level Salt Lake Center
Fri 05:58:37 PM 38.8478 -111.1300 266° West 401 461 45,000  Level Salt Lake Center
Fri 05:59:39 PM 38.8394 -111.2739 266° West 404 465 45,000  Level Salt Lake Center
Fri 06:00:40 PM 38.8283 -111.4436 265° West 400 460 45,000  Level Salt Lake Center
Fri 06:01:42 PM 38.8189 -111.5858 265° West 402 463 45,000  Level Salt Lake Center
Fri 06:02:44 PM 38.8092 -111.7306 265° West 408 470 45,000  Level Salt Lake Center
Fri 06:03:45 PM 38.7994 -111.8739 265° West 407 468 45,000  Level Salt Lake Center
Fri 06:04:47 PM 38.7892 -112.0164 265° West 404 465 45,000  Level Salt Lake Center
Fri 06:05:48 PM 38.7792 -112.1600 265° West 406 467 45,000  Level Salt Lake Center
Fri 06:06:50 PM 38.7694 -112.3019 265° West 404 465 45,000  Level Salt Lake Center
Fri 06:07:52 PM 38.7561 -112.4722 264° West 403 464 45,000  Level Salt Lake Center
Fri 06:08:53 PM 38.7461 -112.6144 265° West 402 463 45,000  Level Salt Lake Center
Fri 06:09:55 PM 38.7339 -112.7567 264° West 403 464 45,000  Level Salt Lake Center
Fri 06:10:56 PM 38.7242 -112.8964 265° West 400 460 45,000  Level Salt Lake Center
Fri 06:11:58 PM 38.7136 -113.0356 264° West 398 458 45,000  Level Salt Lake Center
Fri 06:12:59 PM 38.7022 -113.1711 264° West 391 450 45,000  Level Salt Lake Center
Fri 06:14:01 PM 38.6908 -113.3086 264° West 391 450 45,000  Level Salt Lake Center
Fri 06:15:02 PM 38.6783 -113.4692 264° West 383 441 45,000  Level Salt Lake Center
Fri 06:16:04 PM 38.6661 -113.6069 264° West 390 449 45,000  Level Salt Lake Center
Fri 06:17:05 PM 38.6561 -113.7422 265° West 386 444 45,000  Level Salt Lake Center
Fri 06:18:07 PM 38.6444 -113.8800 264° West 389 448 45,000  Level Salt Lake Center
Fri 06:19:09 PM 38.6314 -114.0169 263° West 389 448 45,000  Level Salt Lake Center
Fri 06:20:10 PM 38.6203 -114.1536 264° West 389 448 45,000  Level Salt Lake Center
Fri 06:21:12 PM 38.6083 -114.2892 264° West 387 445 45,000  Level Salt Lake Center
Fri 06:22:13 PM 38.5917 -114.4544 263° West 392 451 45,000  Level Salt Lake Center
Fri 06:23:15 PM 38.5800 -114.5878 264° West 385 443 45,000  Level Salt Lake Center
Fri 06:24:16 PM 38.5678 -114.7228 263° West 384 442 45,000  Level Salt Lake Center
Fri 06:25:18 PM 38.5553 -114.8589 263° West 386 444 45,000  Level Salt Lake Center
Fri 06:26:19 PM 38.5425 -114.9961 263° West 390 449 45,000  Level Salt Lake Center
Fri 06:27:21 PM 38.5297 -115.1317 263° West 387 445 45,000  Level Salt Lake Center
Fri 06:28:22 PM 38.5156 -115.2664 262° West 385 443 45,000  Level Salt Lake Center
Fri 06:29:24 PM 38.5017 -115.4067 263° West 388 447 45,000  Level Salt Lake Center
Fri 06:30:25 PM 38.4881 -115.5411 263° West 383 441 45,000  Level Salt Lake Center
Fri 06:31:27 PM 38.4722 -115.7022 263° West 383 441 45,000  Level Salt Lake Center
Fri 06:32:29 PM 38.4578 -115.8375 262° West 384 442 45,000  Level Salt Lake Center
Fri 06:33:30 PM 38.4436 -115.9731 262° West 385 443 45,000  Level Salt Lake Center
Fri 06:34:32 PM 38.4303 -116.1081 263° West 385 443 45,000  Level Salt Lake Center
Fri 06:35:33 PM 38.4047 -116.2436 257° West 390 449 45,000  Level Salt Lake Center
Fri 06:36:35 PM 38.3539 -116.3708 243° Southwest 399 459 45,000  Level Salt Lake Center
Fri 06:37:19 PM 38.3144 -116.4731 244° Southwest 401 461 45,000  Level Oakland Center
Fri 06:38:20 PM 38.2644 -116.6014 244° Southwest 405 466 45,000  Level Oakland Center
Fri 06:39:22 PM 38.2144 -116.7306 244° Southwest 404 465 45,000  Level Oakland Center
Fri 06:40:23 PM 38.1647 -116.8600 244° Southwest 406 467 45,000  Level Oakland Center
Fri 06:41:24 PM 38.1136 -116.9894 243° Southwest 406 467 45,000  Level Oakland Center
Fri 06:42:26 PM 38.0611 -117.1211 243° Southwest 408 470 45,000  Level Oakland Center
Fri 06:43:27 PM 38.0086 -117.2564 244° Southwest 418 481 45,000 -197 Level Oakland Center
Fri 06:44:28 PM 37.9556 -117.3889 243° Southwest 415 478 44,600 -878 Descending Oakland Center
Fri 06:45:30 PM 37.9053 -117.5172 244° Southwest 408 470 43,200 -1,317 Descending Oakland Center
Fri 06:46:31 PM 37.8550 -117.6417 243° Southwest 398 458 41,900 -1,279 Descending Oakland Center
Fri 06:47:32 PM 37.8047 -117.7692 244° Southwest 403 464 40,600 -1,279 Descending Oakland Center
Fri 06:48:33 PM 37.7517 -117.8950 242° Southwest 403 464 39,300 -1,415 Descending Oakland Center
Fri 06:49:35 PM 37.6903 -118.0467 243° Southwest 403 464 37,700 -1,415 Descending Oakland Center
Fri 06:50:36 PM 37.6422 -118.1669 243° Southwest 389 448 36,400 -1,230 Descending Oakland Center
Fri 06:51:37 PM 37.5936 -118.2836 242° Southwest 379 436 35,200 -1,180 Descending Oakland Center
Fri 06:52:38 PM 37.5467 -118.3983 243° Southwest 371 427 34,000 -1,171 Descending Oakland Center
Fri 06:53:40 PM 37.4978 -118.5197 243° Southwest 386 444 32,800 -1,220 Descending Oakland Center
Fri 06:54:41 PM 37.4475 -118.6444 243° Southwest 399 459 31,500 -1,328 Descending Oakland Center
Fri 06:55:42 PM 37.3958 -118.7722 243° Southwest 409 471 30,100 -738 Descending Oakland Center
Fri 06:56:43 PM 37.3797 -118.9028 261° West 390 449 30,000 -443 Descending Oakland Center
Fri 06:57:44 PM 37.3656 -119.0336 262° West 382 440 29,200 -1,122 Descending Oakland Center
Fri 06:58:46 PM 37.3531 -119.1656 263° West 382 440 27,700 -1,610 Descending Oakland Center
Fri 06:59:47 PM 37.3361 -119.3181 262° West 372 428 25,900 -1,623 Descending Oakland Center
Fri 07:00:48 PM 37.3233 -119.4444 263° West 368 423 24,400 -1,475 Descending Oakland Center
Fri 07:01:49 PM 37.3100 -119.5697 262° West 364 419 22,900 -1,475 Descending Oakland Center
Fri 07:02:50 PM 37.2964 -119.6919 262° West 357 411 21,400 -1,475 Descending Oakland Center
Fri 07:03:51 PM 37.2842 -119.8150 263° West 352 405 19,900 -1,415 Descending Oakland Center
Fri 07:04:53 PM 37.2711 -119.9222 261° West 341 392 18,500 -1,366 Descending Oakland Center
Fri 07:05:54 PM 37.2586 -120.0392 262° West 340 391 17,100 -1,672 Descending Oakland Center
Fri 07:06:55 PM 37.2431 -120.1800 262° West 339 390 15,100 -1,770 Descending Oakland Center
Fri 07:07:56 PM 37.2306 -120.2944 262° West 330 380 13,500 -1,475 Descending Oakland Center
Fri 07:08:57 PM 37.2181 -120.4047 262° West 320 368 12,100 -1,024 Descending Oakland Center
Fri 07:09:59 PM 37.2000 -120.5000 257° West 320 368 11,400 -984 Descending Northern Cal TRACON
Fri 07:10:59 PM 37.1833 -120.6000 258° West 287 330 10,100 -700 Descending Northern Cal TRACON
Fri 07:11:59 PM 37.1500 -120.7000 247° West 290 334 10,000 -50 Descending Northern Cal TRACON
Fri 07:12:59 PM 37.1333 -120.8000 258° West 293 337 10,000  Level Northern Cal TRACON
Fri 07:13:59 PM 37.1167 -120.9000 258° West 295 339 10,000  Level Northern Cal TRACON
Fri 07:14:59 PM 37.0833 -121.0000 247° West 298 343 10,000  Level Northern Cal TRACON
Fri 07:15:59 PM 37.0667 -121.1000 258° West 297 342 10,000  Level Northern Cal TRACON
Fri 07:16:59 PM 37.0500 -121.2000 258° West 295 339 10,000  Level Northern Cal TRACON
Fri 07:17:59 PM 37.0333 -121.3000 258° West 296 341 10,000 -450 Level Northern Cal TRACON
Fri 07:18:59 PM 37.0000 -121.3833 243° Southwest 249 287 9,100 -1,000 Descending Northern Cal TRACON
Fri 07:19:59 PM 36.9833 -121.4667 256° West 235 270 8,000 -550 Descending Northern Cal TRACON
Fri 07:20:59 PM 36.9667 -121.5500 256° West 228 262 8,000 -586 Level Northern Cal TRACON
Fri 07:22:12 PM 36.9878 -121.6194 291° West 238 274 6,700 -1,299 Descending Oakland Center
Fri 07:23:13 PM 37.0344 -121.7072 304° West 254 292 5,100 -829 Descending Oakland Center
Fri 07:24:15 PM 37.0742 -121.7800 304° West 253 291 5,000 -49 Descending Oakland Center
Fri 07:25:16 PM 37.1139 -121.8556 303° West 259 298 5,000 57 Level Oakland Center
Fri 07:26:00 PM 37.1667 -121.8833 337° Northwest 260 299 5,100 58 Climbing Northern Cal TRACON
Fri 07:27:00 PM 37.2167 -121.9333 321° Northwest 212 244 5,100 -250 Level Northern Cal TRACON
Fri 07:28:00 PM 37.2667 -121.9667 332° Northwest 237 273 4,600 -800 Descending Northern Cal TRACON
Fri 07:29:00 PM 37.3333 -122.0000 338° Northwest 239 275 3,500 -800 Descending Northern Cal TRACON
Fri 07:30:00 PM 37.3833 -122.0500 322° Northwest 218 251 3,000 -500 Descending Northern Cal TRACON
Fri 07:31:00 PM 37.4167 -122.0667 338° Northwest 213 245 2,500 -550 Descending Northern Cal TRACON
Fri 07:32:00 PM 37.4333 -122.0167 67° East 166 191 1,900 -600 Descending Northern Cal TRACON
Fri 07:33:00 PM 37.4167 -121.9833 122° Southeast 123 142 1,300 -650 Descending Northern Cal TRACON
Fri 07:34:00 PM 37.3833 -121.9667 158° South 126 145 600 -700 Descending Northern Cal TRACON

Login

Don't have an account? Register now (free) for customized features, flight alerts, and more!